sensor_id;sensor_type;location;lat;lon;timestamp;pressure;altitude;pressure_sealevel;temperature;humidity
55687;BME280;41911;52.362;4.978;2023-01-08T00:01:25;100190.47;;;7.97;53.63
55687;BME280;41911;52.362;4.978;2023-01-08T00:01:56;100192.11;;;8.27;53.30
55687;BME280;41911;52.362;4.978;2023-01-08T00:02:28;100190.71;;;7.92;53.56
55687;BME280;41911;52.362;4.978;2023-01-08T00:03:00;100192.36;;;8.40;53.30
55687;BME280;41911;52.362;4.978;2023-01-08T00:03:31;100191.57;;;8.47;52.64
55687;BME280;41911;52.362;4.978;2023-01-08T00:04:02;100191.23;;;8.19;52.64
55687;BME280;41911;52.362;4.978;2023-01-08T00:04:33;100195.19;;;8.02;52.89
55687;BME280;41911;52.362;4.978;2023-01-08T00:05:05;100195.59;;;7.75;53.27
55687;BME280;41911;52.362;4.978;2023-01-08T00:05:36;100194.13;;;7.56;53.95
55687;BME280;41911;52.362;4.978;2023-01-08T00:06:10;100194.03;;;8.10;53.57
55687;BME280;41911;52.362;4.978;2023-01-08T00:06:42;100192.41;;;8.09;53.20
55687;BME280;41911;52.362;4.978;2023-01-08T00:07:13;100189.12;;;7.69;53.25
55687;BME280;41911;52.362;4.978;2023-01-08T00:07:44;100192.39;;;8.20;52.83
55687;BME280;41911;52.362;4.978;2023-01-08T00:08:15;100191.25;;;8.10;53.52
55687;BME280;41911;52.362;4.978;2023-01-08T00:08:46;100191.00;;;8.45;53.00
55687;BME280;41911;52.362;4.978;2023-01-08T00:09:17;100198.61;;;7.37;53.57
55687;BME280;41911;52.362;4.978;2023-01-08T00:09:48;100189.74;;;8.01;53.64
55687;BME280;41911;52.362;4.978;2023-01-08T00:10:20;100194.43;;;8.19;53.00
55687;BME280;41911;52.362;4.978;2023-01-08T00:10:53;100197.28;;;7.53;53.60
55687;BME280;41911;52.362;4.978;2023-01-08T00:11:24;100200.81;;;7.37;54.47
55687;BME280;41911;52.362;4.978;2023-01-08T00:11:55;100196.62;;;7.62;54.16
55687;BME280;41911;52.362;4.978;2023-01-08T00:12:26;100199.46;;;7.03;54.71
55687;BME280;41911;52.362;4.978;2023-01-08T00:12:57;100197.84;;;7.32;54.77
55687;BME280;41911;52.362;4.978;2023-01-08T00:13:28;100198.43;;;7.26;54.59
55687;BME280;41911;52.362;4.978;2023-01-08T00:13:59;100196.61;;;7.34;54.75
55687;BME280;41911;52.362;4.978;2023-01-08T00:14:30;100199.88;;;7.64;54.11
55687;BME280;41911;52.362;4.978;2023-01-08T00:15:03;100201.41;;;7.22;54.77
55687;BME280;41911;52.362;4.978;2023-01-08T00:15:34;100199.93;;;7.05;55.20
55687;BME280;41911;52.362;4.978;2023-01-08T00:16:07;100200.92;;;7.28;55.04
55687;BME280;41911;52.362;4.978;2023-01-08T00:16:38;100194.48;;;7.65;54.47
55687;BME280;41911;52.362;4.978;2023-01-08T00:17:09;100196.69;;;7.98;53.89
55687;BME280;41911;52.362;4.978;2023-01-08T00:17:40;100189.59;;;8.15;53.53
55687;BME280;41911;52.362;4.978;2023-01-08T00:18:11;100191.51;;;7.93;53.84
55687;BME280;41911;52.362;4.978;2023-01-08T00:18:42;100195.55;;;7.88;53.92
55687;BME280;41911;52.362;4.978;2023-01-08T00:19:13;100189.20;;;7.44;53.84
55687;BME280;41911;52.362;4.978;2023-01-08T00:19:44;100188.33;;;7.53;54.31
55687;BME280;41911;52.362;4.978;2023-01-08T00:20:15;100192.14;;;7.44;54.47
55687;BME280;41911;52.362;4.978;2023-01-08T00:20:47;100196.92;;;7.04;55.61
55687;BME280;41911;52.362;4.978;2023-01-08T00:21:18;100195.43;;;7.26;54.58
55687;BME280;41911;52.362;4.978;2023-01-08T00:21:49;100194.28;;;7.27;54.77
55687;BME280;41911;52.362;4.978;2023-01-08T00:22:20;100193.30;;;7.66;54.12
55687;BME280;41911;52.362;4.978;2023-01-08T00:22:52;100200.60;;;7.92;54.05
55687;BME280;41911;52.362;4.978;2023-01-08T00:23:24;100200.34;;;7.30;54.62
55687;BME280;41911;52.362;4.978;2023-01-08T00:23:55;100205.94;;;7.13;54.95
55687;BME280;41911;52.362;4.978;2023-01-08T00:24:26;100202.65;;;7.20;54.84
55687;BME280;41911;52.362;4.978;2023-01-08T00:24:57;100203.79;;;7.44;54.60
55687;BME280;41911;52.362;4.978;2023-01-08T00:25:28;100200.86;;;7.25;54.72
55687;BME280;41911;52.362;4.978;2023-01-08T00:26:00;100204.81;;;7.28;54.85
55687;BME280;41911;52.362;4.978;2023-01-08T00:26:31;100205.26;;;6.95;55.12
55687;BME280;41911;52.362;4.978;2023-01-08T00:27:02;100205.91;;;7.23;54.89
55687;BME280;41911;52.362;4.978;2023-01-08T00:27:33;100200.66;;;7.52;54.40
55687;BME280;41911;52.362;4.978;2023-01-08T00:28:04;100200.15;;;7.74;54.06
55687;BME280;41911;52.362;4.978;2023-01-08T00:28:36;100196.83;;;7.55;54.08
55687;BME280;41911;52.362;4.978;2023-01-08T00:29:07;100198.72;;;6.74;55.13
55687;BME280;41911;52.362;4.978;2023-01-08T00:29:38;100195.12;;;7.35;54.65
55687;BME280;41911;52.362;4.978;2023-01-08T00:30:10;100194.64;;;7.31;54.38
55687;BME280;41911;52.362;4.978;2023-01-08T00:30:42;100192.81;;;7.22;54.78
55687;BME280;41911;52.362;4.978;2023-01-08T00:31:14;100200.72;;;6.92;55.10
55687;BME280;41911;52.362;4.978;2023-01-08T00:31:45;100194.89;;;7.22;54.64
55687;BME280;41911;52.362;4.978;2023-01-08T00:32:18;100192.55;;;7.24;54.54
55687;BME280;41911;52.362;4.978;2023-01-08T00:32:49;100197.71;;;7.63;54.08
55687;BME280;41911;52.362;4.978;2023-01-08T00:33:20;100191.95;;;7.76;54.00
55687;BME280;41911;52.362;4.978;2023-01-08T00:33:51;100196.24;;;7.48;54.56
55687;BME280;41911;52.362;4.978;2023-01-08T00:34:22;100192.40;;;7.27;54.71
55687;BME280;41911;52.362;4.978;2023-01-08T00:34:53;100193.39;;;7.08;54.81
55687;BME280;41911;52.362;4.978;2023-01-08T00:35:24;100192.20;;;7.54;54.27
55687;BME280;41911;52.362;4.978;2023-01-08T00:35:55;100194.74;;;6.92;54.65
55687;BME280;41911;52.362;4.978;2023-01-08T00:36:26;100198.28;;;6.85;55.16
55687;BME280;41911;52.362;4.978;2023-01-08T00:36:57;100192.46;;;6.81;55.36
55687;BME280;41911;52.362;4.978;2023-01-08T00:37:28;100195.24;;;6.94;55.21
55687;BME280;41911;52.362;4.978;2023-01-08T00:37:59;100196.84;;;7.28;54.53
55687;BME280;41911;52.362;4.978;2023-01-08T00:38:30;100190.68;;;6.71;54.99
55687;BME280;41911;52.362;4.978;2023-01-08T00:39:02;100184.04;;;6.72;55.23
55687;BME280;41911;52.362;4.978;2023-01-08T00:39:33;100188.35;;;6.51;55.58
55687;BME280;41911;52.362;4.978;2023-01-08T00:40:06;100185.38;;;7.01;55.89
55687;BME280;41911;52.362;4.978;2023-01-08T00:40:37;100181.91;;;6.93;55.79
55687;BME280;41911;52.362;4.978;2023-01-08T00:41:09;100186.17;;;6.79;56.12
55687;BME280;41911;52.362;4.978;2023-01-08T00:41:41;100183.87;;;6.42;56.00
55687;BME280;41911;52.362;4.978;2023-01-08T00:42:12;100183.97;;;7.44;55.41
55687;BME280;41911;52.362;4.978;2023-01-08T00:42:43;100181.86;;;6.86;55.68
55687;BME280;41911;52.362;4.978;2023-01-08T00:43:15;100185.84;;;7.12;55.84
55687;BME280;41911;52.362;4.978;2023-01-08T00:43:45;100185.46;;;6.56;55.80
55687;BME280;41911;52.362;4.978;2023-01-08T00:44:18;100183.21;;;6.78;56.28
55687;BME280;41911;52.362;4.978;2023-01-08T00:44:49;100179.68;;;6.84;55.94
55687;BME280;41911;52.362;4.978;2023-01-08T00:45:20;100187.55;;;7.04;55.65
55687;BME280;41911;52.362;4.978;2023-01-08T00:45:51;100176.05;;;7.21;55.44
55687;BME280;41911;52.362;4.978;2023-01-08T00:46:22;100176.96;;;7.24;54.91
55687;BME280;41911;52.362;4.978;2023-01-08T00:46:53;100179.34;;;7.19;55.12
55687;BME280;41911;52.362;4.978;2023-01-08T00:47:24;100177.07;;;7.15;55.30
55687;BME280;41911;52.362;4.978;2023-01-08T00:47:56;100171.74;;;6.66;56.06
55687;BME280;41911;52.362;4.978;2023-01-08T00:48:27;100180.18;;;6.89;55.67
55687;BME280;41911;52.362;4.978;2023-01-08T00:48:58;100173.23;;;6.52;56.44
55687;BME280;41911;52.362;4.978;2023-01-08T00:49:29;100179.09;;;6.35;56.41
55687;BME280;41911;52.362;4.978;2023-01-08T00:50:00;100174.61;;;5.96;57.01
55687;BME280;41911;52.362;4.978;2023-01-08T00:50:31;100171.92;;;6.09;56.85
55687;BME280;41911;52.362;4.978;2023-01-08T00:51:03;100178.11;;;6.59;55.76
55687;BME280;41911;52.362;4.978;2023-01-08T00:51:34;100174.06;;;6.13;56.76
55687;BME280;41911;52.362;4.978;2023-01-08T00:52:05;100168.27;;;6.26;56.75
55687;BME280;41911;52.362;4.978;2023-01-08T00:52:36;100174.48;;;6.42;56.43
55687;BME280;41911;52.362;4.978;2023-01-08T00:53:07;100172.48;;;6.52;55.84
55687;BME280;41911;52.362;4.978;2023-01-08T00:53:38;100169.79;;;5.99;57.02
55687;BME280;41911;52.362;4.978;2023-01-08T00:54:10;100165.28;;;6.54;56.42
55687;BME280;41911;52.362;4.978;2023-01-08T00:54:41;100160.37;;;6.43;56.89
55687;BME280;41911;52.362;4.978;2023-01-08T00:55:12;100161.91;;;6.21;56.68
55687;BME280;41911;52.362;4.978;2023-01-08T00:55:42;100155.06;;;6.06;56.56
55687;BME280;41911;52.362;4.978;2023-01-08T00:56:14;100153.39;;;6.27;57.08
55687;BME280;41911;52.362;4.978;2023-01-08T00:56:44;100151.46;;;6.59;56.59
55687;BME280;41911;52.362;4.978;2023-01-08T00:57:15;100154.07;;;6.45;56.74
55687;BME280;41911;52.362;4.978;2023-01-08T00:57:46;100152.26;;;6.75;55.93
55687;BME280;41911;52.362;4.978;2023-01-08T00:58:17;100149.37;;;6.58;55.86
55687;BME280;41911;52.362;4.978;2023-01-08T00:58:48;100150.33;;;6.32;55.85
55687;BME280;41911;52.362;4.978;2023-01-08T00:59:20;100148.48;;;6.58;56.12
55687;BME280;41911;52.362;4.978;2023-01-08T00:59:51;100155.76;;;7.02;55.81
55687;BME280;41911;52.362;4.978;2023-01-08T01:00:23;100152.14;;;6.64;55.68
55687;BME280;41911;52.362;4.978;2023-01-08T01:00:54;100153.06;;;6.69;55.88
55687;BME280;41911;52.362;4.978;2023-01-08T01:01:25;100153.31;;;6.88;55.63
55687;BME280;41911;52.362;4.978;2023-01-08T01:01:58;100153.17;;;7.21;55.06
55687;BME280;41911;52.362;4.978;2023-01-08T01:02:29;100154.92;;;7.38;54.59
55687;BME280;41911;52.362;4.978;2023-01-08T01:03:00;100159.57;;;7.78;54.06
55687;BME280;41911;52.362;4.978;2023-01-08T01:03:31;100154.90;;;7.65;53.84
55687;BME280;41911;52.362;4.978;2023-01-08T01:04:02;100152.99;;;7.46;53.61
55687;BME280;41911;52.362;4.978;2023-01-08T01:04:33;100153.07;;;7.87;53.09
55687;BME280;41911;52.362;4.978;2023-01-08T01:05:05;100158.53;;;7.57;53.23
55687;BME280;41911;52.362;4.978;2023-01-08T01:05:36;100154.84;;;7.36;53.43
55687;BME280;41911;52.362;4.978;2023-01-08T01:06:08;100150.79;;;6.76;54.36
55687;BME280;41911;52.362;4.978;2023-01-08T01:06:41;100154.26;;;7.05;54.10
55687;BME280;41911;52.362;4.978;2023-01-08T01:07:12;100150.30;;;6.84;54.30
55687;BME280;41911;52.362;4.978;2023-01-08T01:07:43;100156.03;;;6.57;54.99
55687;BME280;41911;52.362;4.978;2023-01-08T01:08:14;100148.78;;;6.99;54.32
55687;BME280;41911;52.362;4.978;2023-01-08T01:08:45;100143.93;;;7.26;53.71
55687;BME280;41911;52.362;4.978;2023-01-08T01:09:16;100150.57;;;7.49;53.45
55687;BME280;41911;52.362;4.978;2023-01-08T01:09:47;100147.97;;;7.06;54.05
55687;BME280;41911;52.362;4.978;2023-01-08T01:10:18;100145.32;;;7.23;54.39
55687;BME280;41911;52.362;4.978;2023-01-08T01:10:50;100145.96;;;7.19;54.22
55687;BME280;41911;52.362;4.978;2023-01-08T01:11:23;100144.24;;;7.48;53.69
55687;BME280;41911;52.362;4.978;2023-01-08T01:11:54;100137.86;;;7.74;53.02
55687;BME280;41911;52.362;4.978;2023-01-08T01:12:25;100140.11;;;7.74;52.97
55687;BME280;41911;52.362;4.978;2023-01-08T01:12:56;100142.60;;;7.92;52.70
55687;BME280;41911;52.362;4.978;2023-01-08T01:13:27;100138.95;;;7.60;52.99
55687;BME280;41911;52.362;4.978;2023-01-08T01:13:58;100143.80;;;7.51;53.39
55687;BME280;41911;52.362;4.978;2023-01-08T01:14:29;100142.17;;;7.57;53.12
55687;BME280;41911;52.362;4.978;2023-01-08T01:15:00;100141.81;;;7.65;52.98
55687;BME280;41911;52.362;4.978;2023-01-08T01:15:31;100144.37;;;7.56;52.85
55687;BME280;41911;52.362;4.978;2023-01-08T01:16:02;100146.41;;;7.76;52.48
55687;BME280;41911;52.362;4.978;2023-01-08T01:16:33;100143.21;;;7.58;52.79
55687;BME280;41911;52.362;4.978;2023-01-08T01:17:05;100145.04;;;8.01;52.39
55687;BME280;41911;52.362;4.978;2023-01-08T01:17:38;100142.95;;;8.02;52.45
55687;BME280;41911;52.362;4.978;2023-01-08T01:18:10;100143.36;;;7.68;53.12
55687;BME280;41911;52.362;4.978;2023-01-08T01:18:41;100141.20;;;7.26;53.33
55687;BME280;41911;52.362;4.978;2023-01-08T01:19:13;100146.51;;;7.39;53.54
55687;BME280;41911;52.362;4.978;2023-01-08T01:19:44;100140.88;;;7.51;53.44
55687;BME280;41911;52.362;4.978;2023-01-08T01:20:15;100146.30;;;7.55;53.40
55687;BME280;41911;52.362;4.978;2023-01-08T01:20:46;100146.02;;;7.60;53.40
55687;BME280;41911;52.362;4.978;2023-01-08T01:21:22;100152.39;;;7.51;53.48
55687;BME280;41911;52.362;4.978;2023-01-08T01:21:54;100145.43;;;7.83;52.86
55687;BME280;41911;52.362;4.978;2023-01-08T01:22:25;100145.82;;;7.97;52.62
55687;BME280;41911;52.362;4.978;2023-01-08T01:22:56;100139.25;;;8.27;52.21
55687;BME280;41911;52.362;4.978;2023-01-08T01:23:27;100138.00;;;8.33;51.98
55687;BME280;41911;52.362;4.978;2023-01-08T01:24:00;100140.50;;;8.59;51.81
55687;BME280;41911;52.362;4.978;2023-01-08T01:24:32;100141.38;;;8.41;51.98
55687;BME280;41911;52.362;4.978;2023-01-08T01:25:04;100138.55;;;8.12;51.87
55687;BME280;41911;52.362;4.978;2023-01-08T01:25:36;100140.42;;;8.11;51.90
55687;BME280;41911;52.362;4.978;2023-01-08T01:26:14;100137.18;;;8.37;51.50
55687;BME280;41911;52.362;4.978;2023-01-08T01:26:45;100135.09;;;8.12;51.72
55687;BME280;41911;52.362;4.978;2023-01-08T01:27:16;100137.79;;;8.03;51.49
55687;BME280;41911;52.362;4.978;2023-01-08T01:27:47;100135.02;;;8.08;51.24
55687;BME280;41911;52.362;4.978;2023-01-08T01:28:18;100136.46;;;8.65;50.95
55687;BME280;41911;52.362;4.978;2023-01-08T01:28:50;100134.60;;;8.77;50.91
55687;BME280;41911;52.362;4.978;2023-01-08T01:29:21;100134.01;;;8.24;51.12
55687;BME280;41911;52.362;4.978;2023-01-08T01:29:53;100131.44;;;8.15;51.33
55687;BME280;41911;52.362;4.978;2023-01-08T01:30:24;100132.85;;;8.36;51.03
55687;BME280;41911;52.362;4.978;2023-01-08T01:30:56;100135.01;;;8.60;51.11
55687;BME280;41911;52.362;4.978;2023-01-08T01:31:29;100131.56;;;8.34;51.04
55687;BME280;41911;52.362;4.978;2023-01-08T01:32:00;100129.97;;;8.27;51.21
55687;BME280;41911;52.362;4.978;2023-01-08T01:32:31;100131.42;;;8.59;50.91
55687;BME280;41911;52.362;4.978;2023-01-08T01:33:02;100129.38;;;8.59;50.83
55687;BME280;41911;52.362;4.978;2023-01-08T01:33:33;100129.02;;;8.43;51.00
55687;BME280;41911;52.362;4.978;2023-01-08T01:34:04;100132.93;;;8.48;50.99
55687;BME280;41911;52.362;4.978;2023-01-08T01:34:35;100131.66;;;8.38;51.17
55687;BME280;41911;52.362;4.978;2023-01-08T01:35:07;100132.96;;;8.49;51.06
55687;BME280;41911;52.362;4.978;2023-01-08T01:35:38;100130.51;;;8.74;50.64
55687;BME280;41911;52.362;4.978;2023-01-08T01:36:10;100132.39;;;8.73;50.67
55687;BME280;41911;52.362;4.978;2023-01-08T01:36:42;100130.97;;;8.32;50.81
55687;BME280;41911;52.362;4.978;2023-01-08T01:37:13;100133.76;;;8.65;50.88
55687;BME280;41911;52.362;4.978;2023-01-08T01:37:44;100131.85;;;9.01;50.41
55687;BME280;41911;52.362;4.978;2023-01-08T01:38:15;100131.60;;;8.66;50.89
55687;BME280;41911;52.362;4.978;2023-01-08T01:38:48;100136.20;;;8.79;50.66
55687;BME280;41911;52.362;4.978;2023-01-08T01:39:19;100132.67;;;8.88;50.53
55687;BME280;41911;52.362;4.978;2023-01-08T01:39:50;100132.32;;;8.82;50.66
55687;BME280;41911;52.362;4.978;2023-01-08T01:40:21;100129.98;;;8.17;51.70
55687;BME280;41911;52.362;4.978;2023-01-08T01:40:52;100133.27;;;7.68;52.05
55687;BME280;41911;52.362;4.978;2023-01-08T01:41:26;100132.72;;;7.97;52.21
55687;BME280;41911;52.362;4.978;2023-01-08T01:41:57;100132.72;;;8.41;51.56
55687;BME280;41911;52.362;4.978;2023-01-08T01:42:28;100132.54;;;8.49;51.42
55687;BME280;41911;52.362;4.978;2023-01-08T01:42:59;100137.25;;;8.57;51.15
55687;BME280;41911;52.362;4.978;2023-01-08T01:43:35;100135.19;;;8.34;51.58
55687;BME280;41911;52.362;4.978;2023-01-08T01:44:40;100136.98;;;8.48;51.49
55687;BME280;41911;52.362;4.978;2023-01-08T01:45:17;100138.66;;;8.51;51.46
55687;BME280;41911;52.362;4.978;2023-01-08T01:45:49;100137.76;;;8.46;51.04
55687;BME280;41911;52.362;4.978;2023-01-08T01:46:27;100135.17;;;8.76;50.83
55687;BME280;41911;52.362;4.978;2023-01-08T01:47:08;100136.47;;;8.35;50.76
55687;BME280;41911;52.362;4.978;2023-01-08T01:47:41;100135.12;;;8.95;50.68
55687;BME280;41911;52.362;4.978;2023-01-08T01:48:14;100136.09;;;8.69;50.94
55687;BME280;41911;52.362;4.978;2023-01-08T01:48:48;100135.90;;;9.01;50.67
55687;BME280;41911;52.362;4.978;2023-01-08T01:49:21;100135.84;;;8.76;51.02
55687;BME280;41911;52.362;4.978;2023-01-08T01:49:56;100135.92;;;8.64;50.82
55687;BME280;41911;52.362;4.978;2023-01-08T01:50:34;100139.39;;;8.65;50.77
55687;BME280;41911;52.362;4.978;2023-01-08T01:51:07;100136.80;;;8.97;50.73
55687;BME280;41911;52.362;4.978;2023-01-08T01:51:42;100137.56;;;8.83;50.94
55687;BME280;41911;52.362;4.978;2023-01-08T01:52:15;100137.22;;;8.88;50.96
55687;BME280;41911;52.362;4.978;2023-01-08T01:52:51;100139.40;;;8.70;50.82
55687;BME280;41911;52.362;4.978;2023-01-08T01:53:29;100139.33;;;8.89;50.52
55687;BME280;41911;52.362;4.978;2023-01-08T01:54:04;100136.25;;;7.95;51.29
55687;BME280;41911;52.362;4.978;2023-01-08T01:54:37;100134.62;;;8.37;51.18
55687;BME280;41911;52.362;4.978;2023-01-08T01:55:10;100134.47;;;8.47;51.70
55687;BME280;41911;52.362;4.978;2023-01-08T01:55:43;100137.00;;;8.09;51.93
55687;BME280;41911;52.362;4.978;2023-01-08T01:56:15;100137.08;;;8.48;51.85
55687;BME280;41911;52.362;4.978;2023-01-08T01:56:46;100133.89;;;8.31;52.12
55687;BME280;41911;52.362;4.978;2023-01-08T01:57:17;100138.09;;;7.76;52.95
55687;BME280;41911;52.362;4.978;2023-01-08T01:57:56;100136.36;;;8.19;52.45
55687;BME280;41911;52.362;4.978;2023-01-08T01:58:41;100136.66;;;8.13;52.47
55687;BME280;41911;52.362;4.978;2023-01-08T01:59:12;100137.27;;;8.02;52.68
55687;BME280;41911;52.362;4.978;2023-01-08T01:59:44;100142.42;;;7.91;52.91
55687;BME280;41911;52.362;4.978;2023-01-08T02:00:17;100139.57;;;7.96;53.07
55687;BME280;41911;52.362;4.978;2023-01-08T02:00:49;100139.46;;;7.97;52.75
55687;BME280;41911;52.362;4.978;2023-01-08T02:01:22;100140.04;;;7.86;53.17
55687;BME280;41911;52.362;4.978;2023-01-08T02:01:55;100137.92;;;8.27;53.04
55687;BME280;41911;52.362;4.978;2023-01-08T02:02:27;100137.40;;;8.40;52.85
55687;BME280;41911;52.362;4.978;2023-01-08T02:03:00;100135.17;;;8.07;52.78
55687;BME280;41911;52.362;4.978;2023-01-08T02:03:34;100133.94;;;7.61;53.54
55687;BME280;41911;52.362;4.978;2023-01-08T02:04:07;100137.39;;;7.86;53.28
55687;BME280;41911;52.362;4.978;2023-01-08T02:04:39;100133.72;;;7.88;53.28
55687;BME280;41911;52.362;4.978;2023-01-08T02:05:10;100133.12;;;7.82;53.70
55687;BME280;41911;52.362;4.978;2023-01-08T02:05:47;100134.96;;;7.33;54.13
55687;BME280;41911;52.362;4.978;2023-01-08T02:06:31;100135.53;;;8.08;53.57
55687;BME280;41911;52.362;4.978;2023-01-08T02:07:12;100132.95;;;8.11;53.80
55687;BME280;41911;52.362;4.978;2023-01-08T02:07:50;100134.17;;;7.93;53.71
55687;BME280;41911;52.362;4.978;2023-01-08T02:08:33;100135.72;;;8.04;53.69
55687;BME280;41911;52.362;4.978;2023-01-08T02:09:16;100134.41;;;8.32;53.23
55687;BME280;41911;52.362;4.978;2023-01-08T02:09:58;100137.17;;;8.07;53.59
55687;BME280;41911;52.362;4.978;2023-01-08T02:10:38;100136.58;;;7.64;53.94
55687;BME280;41911;52.362;4.978;2023-01-08T02:11:17;100138.99;;;7.99;54.19
55687;BME280;41911;52.362;4.978;2023-01-08T02:11:55;100140.71;;;7.63;54.32
55687;BME280;41911;52.362;4.978;2023-01-08T02:12:35;100139.42;;;8.05;53.73
55687;BME280;41911;52.362;4.978;2023-01-08T02:13:11;100135.55;;;8.16;53.68
55687;BME280;41911;52.362;4.978;2023-01-08T02:13:49;100133.58;;;8.10;53.71
55687;BME280;41911;52.362;4.978;2023-01-08T02:14:31;100131.88;;;8.09;53.69
55687;BME280;41911;52.362;4.978;2023-01-08T02:15:10;100129.67;;;7.81;53.81
55687;BME280;41911;52.362;4.978;2023-01-08T02:15:47;100124.70;;;8.39;53.42
55687;BME280;41911;52.362;4.978;2023-01-08T02:16:27;100126.25;;;8.00;53.54
55687;BME280;41911;52.362;4.978;2023-01-08T02:17:02;100126.57;;;7.80;53.68
55687;BME280;41911;52.362;4.978;2023-01-08T02:17:41;100124.29;;;8.32;53.50
55687;BME280;41911;52.362;4.978;2023-01-08T02:18:18;100126.64;;;8.18;53.71
55687;BME280;41911;52.362;4.978;2023-01-08T02:18:55;100127.61;;;8.27;53.57
55687;BME280;41911;52.362;4.978;2023-01-08T02:19:36;100127.79;;;8.31;53.40
55687;BME280;41911;52.362;4.978;2023-01-08T02:20:12;100130.85;;;8.43;52.99
55687;BME280;41911;52.362;4.978;2023-01-08T02:20:48;100128.73;;;8.46;53.06
55687;BME280;41911;52.362;4.978;2023-01-08T02:21:26;100130.18;;;8.39;52.83
55687;BME280;41911;52.362;4.978;2023-01-08T02:22:12;100127.91;;;8.01;53.29
55687;BME280;41911;52.362;4.978;2023-01-08T02:22:56;100129.60;;;8.42;52.72
55687;BME280;41911;52.362;4.978;2023-01-08T02:23:40;100126.51;;;8.23;52.94
55687;BME280;41911;52.362;4.978;2023-01-08T02:24:22;100131.72;;;8.12;53.00
55687;BME280;41911;52.362;4.978;2023-01-08T02:25:04;100132.08;;;8.47;53.05
55687;BME280;41911;52.362;4.978;2023-01-08T02:26:16;100130.76;;;8.21;52.94
55687;BME280;41911;52.362;4.978;2023-01-08T02:26:50;100128.05;;;8.08;53.08
55687;BME280;41911;52.362;4.978;2023-01-08T02:27:24;100122.73;;;8.28;52.84
55687;BME280;41911;52.362;4.978;2023-01-08T02:28:00;100119.59;;;8.47;52.85
55687;BME280;41911;52.362;4.978;2023-01-08T02:28:37;100122.05;;;8.49;52.83
55687;BME280;41911;52.362;4.978;2023-01-08T02:29:15;100116.75;;;7.96;53.18
55687;BME280;41911;52.362;4.978;2023-01-08T02:29:48;100118.94;;;7.82;53.57
55687;BME280;41911;52.362;4.978;2023-01-08T02:30:21;100116.86;;;7.84;53.41
55687;BME280;41911;52.362;4.978;2023-01-08T02:30:53;100115.11;;;7.66;53.67
55687;BME280;41911;52.362;4.978;2023-01-08T02:31:27;100114.84;;;7.94;53.75
55687;BME280;41911;52.362;4.978;2023-01-08T02:31:58;100115.03;;;7.57;53.92
55687;BME280;41911;52.362;4.978;2023-01-08T02:32:33;100114.63;;;7.57;53.94
55687;BME280;41911;52.362;4.978;2023-01-08T02:33:06;100112.86;;;7.52;53.92
55687;BME280;41911;52.362;4.978;2023-01-08T02:33:37;100114.55;;;7.73;54.06
55687;BME280;41911;52.362;4.978;2023-01-08T02:34:10;100117.53;;;7.61;54.24
55687;BME280;41911;52.362;4.978;2023-01-08T02:34:41;100114.19;;;7.74;54.15
55687;BME280;41911;52.362;4.978;2023-01-08T02:35:12;100115.36;;;7.87;54.41
55687;BME280;41911;52.362;4.978;2023-01-08T02:35:49;100111.10;;;7.77;54.13
55687;BME280;41911;52.362;4.978;2023-01-08T02:36:27;100113.13;;;7.77;54.13
55687;BME280;41911;52.362;4.978;2023-01-08T02:36:59;100112.87;;;7.59;54.45
55687;BME280;41911;52.362;4.978;2023-01-08T02:37:31;100116.51;;;7.49;55.11
55687;BME280;41911;52.362;4.978;2023-01-08T02:38:03;100114.95;;;7.64;54.51
55687;BME280;41911;52.362;4.978;2023-01-08T02:38:35;100113.80;;;7.37;54.63
55687;BME280;41911;52.362;4.978;2023-01-08T02:39:18;100116.93;;;7.52;54.90
55687;BME280;41911;52.362;4.978;2023-01-08T02:40:03;100116.96;;;7.25;55.03
55687;BME280;41911;52.362;4.978;2023-01-08T02:40:49;100116.51;;;7.34;55.36
55687;BME280;41911;52.362;4.978;2023-01-08T02:41:26;100115.77;;;7.23;54.96
55687;BME280;41911;52.362;4.978;2023-01-08T02:42:08;100106.73;;;7.43;55.09
55687;BME280;41911;52.362;4.978;2023-01-08T02:42:46;100116.52;;;7.97;54.36
55687;BME280;41911;52.362;4.978;2023-01-08T02:43:25;100113.60;;;7.92;54.33
55687;BME280;41911;52.362;4.978;2023-01-08T02:43:59;100113.00;;;7.96;54.19
55687;BME280;41911;52.362;4.978;2023-01-08T02:44:38;100113.88;;;7.71;54.10
55687;BME280;41911;52.362;4.978;2023-01-08T02:45:20;100113.67;;;7.68;54.50
55687;BME280;41911;52.362;4.978;2023-01-08T02:45:57;100113.03;;;7.39;55.04
55687;BME280;41911;52.362;4.978;2023-01-08T02:46:33;100110.99;;;7.32;55.18
55687;BME280;41911;52.362;4.978;2023-01-08T02:47:11;100119.49;;;7.21;55.30
55687;BME280;41911;52.362;4.978;2023-01-08T02:47:50;100113.47;;;7.18;55.02
55687;BME280;41911;52.362;4.978;2023-01-08T02:48:30;100119.04;;;7.46;54.98
55687;BME280;41911;52.362;4.978;2023-01-08T02:49:08;100118.19;;;7.72;54.38
55687;BME280;41911;52.362;4.978;2023-01-08T02:49:43;100124.03;;;7.55;54.74
55687;BME280;41911;52.362;4.978;2023-01-08T02:50:23;100123.51;;;7.60;54.72
55687;BME280;41911;52.362;4.978;2023-01-08T02:50:58;100126.41;;;7.49;54.83
55687;BME280;41911;52.362;4.978;2023-01-08T02:51:34;100121.94;;;7.60;54.60
55687;BME280;41911;52.362;4.978;2023-01-08T02:52:12;100123.93;;;7.30;54.67
55687;BME280;41911;52.362;4.978;2023-01-08T02:52:51;100128.01;;;7.71;54.34
55687;BME280;41911;52.362;4.978;2023-01-08T02:53:27;100124.12;;;7.57;54.43
55687;BME280;41911;52.362;4.978;2023-01-08T02:54:04;100125.44;;;7.47;54.74
55687;BME280;41911;52.362;4.978;2023-01-08T02:54:43;100123.99;;;7.30;55.01
55687;BME280;41911;52.362;4.978;2023-01-08T02:55:18;100126.65;;;6.84;55.67
55687;BME280;41911;52.362;4.978;2023-01-08T02:55:54;100131.39;;;6.74;55.92
55687;BME280;41911;52.362;4.978;2023-01-08T02:56:30;100131.74;;;6.62;56.31
55687;BME280;41911;52.362;4.978;2023-01-08T02:57:07;100131.54;;;6.86;55.93
55687;BME280;41911;52.362;4.978;2023-01-08T02:57:41;100127.55;;;7.39;54.96
55687;BME280;41911;52.362;4.978;2023-01-08T02:58:13;100124.43;;;7.39;54.86
55687;BME280;41911;52.362;4.978;2023-01-08T02:58:45;100121.90;;;7.15;54.78